createdAt,value
2023-04-17T00:00:42.679Z,3.5
2023-04-17T00:15:42.787Z,3.5
2023-04-17T00:30:44.685Z,3.6
2023-04-17T00:45:45.076Z,3.7
2023-04-17T01:00:45.648Z,3.5
2023-04-17T01:15:45.074Z,3.5
2023-04-17T01:30:46.518Z,3.4
2023-04-17T01:45:46.661Z,3.2
2023-04-17T02:00:49.957Z,3.2
2023-04-17T02:15:48.504Z,3
2023-04-17T02:30:48.842Z,2.9
2023-04-17T02:45:49.988Z,2.9
2023-04-17T03:00:51.018Z,2.8
2023-04-17T03:15:51.387Z,2.5
2023-04-17T03:30:51.856Z,2.4
2023-04-17T03:45:52.491Z,2.8
2023-04-17T04:00:53.218Z,2.8
2023-04-17T04:15:54.295Z,2.9
2023-04-17T04:25:14.875Z,2.5
2023-04-17T04:40:15.552Z,1.9
2023-04-17T04:55:13.646Z,1.8
2023-04-17T05:10:15.774Z,2.3
2023-04-17T05:25:15.260Z,2.7
2023-04-17T05:40:17.762Z,2.6
2023-04-17T05:55:15.915Z,2.6
2023-04-17T06:10:18.805Z,2.6
2023-04-17T06:25:16.924Z,3.3
2023-04-17T06:40:20.354Z,3.6
2023-04-17T06:55:17.457Z,4.2
2023-04-17T07:10:20.907Z,4.7
2023-04-17T07:25:19.413Z,5.2
2023-04-17T07:40:21.872Z,5.6
2023-04-17T07:55:21.976Z,5.7
2023-04-17T08:10:26.028Z,6.3
2023-04-17T08:25:24.053Z,6.7
2023-04-17T08:40:24.257Z,7.1
2023-04-17T08:55:23.613Z,7.2
2023-04-17T09:10:24.538Z,7.6
2023-04-17T09:25:24.548Z,8.4
2023-04-17T09:40:24.730Z,8.8
2023-04-17T09:55:24.101Z,8.4
2023-04-17T10:10:26.999Z,8.4
2023-04-17T10:25:24.783Z,9
2023-04-17T10:40:27.440Z,10.1
2023-04-17T10:55:25.718Z,10.7
2023-04-17T11:10:29.094Z,9.7
2023-04-17T11:25:28.766Z,9.2
2023-04-17T11:40:30.132Z,9.1
2023-04-17T11:55:28.171Z,8.9
2023-04-17T12:10:30.859Z,9.1
2023-04-17T12:25:29.911Z,9.4
2023-04-17T12:40:32.235Z,10.2
2023-04-17T12:55:31.019Z,11.1
2023-04-17T13:10:31.906Z,11.5
2023-04-17T13:25:30.885Z,12.4
2023-04-17T13:40:34.089Z,12.6
2023-04-17T13:55:32.193Z,12.6
2023-04-17T14:10:33.916Z,13.1
2023-04-17T14:25:33.365Z,12
2023-04-17T14:40:36.220Z,13.3
2023-04-17T14:55:37.747Z,13.3
2023-04-17T15:10:51.905Z,12.4
2023-04-17T15:25:35.683Z,13.1
2023-04-17T15:40:38.283Z,11.5
2023-04-17T15:55:35.948Z,11.5
2023-04-17T16:10:39.054Z,11.9
2023-04-17T16:25:38.686Z,13.3
2023-04-17T16:40:40.263Z,13.3
2023-04-17T16:55:40.128Z,11.2
2023-04-17T17:10:38.814Z,10.6
2023-04-17T17:25:38.988Z,10.5
2023-04-17T17:40:40.595Z,10.5
2023-04-17T17:55:40.146Z,10.1
2023-04-17T18:10:40.180Z,9.9
2023-04-17T18:25:41.268Z,9.6
2023-04-17T18:40:42.296Z,9.5
2023-04-17T18:55:42.609Z,9.4
2023-04-17T19:10:44.036Z,9.3
2023-04-17T19:25:43.861Z,8.9
2023-04-17T19:40:45.635Z,8.8
2023-04-17T19:55:45.636Z,8.3
2023-04-17T20:10:46.188Z,7.8
2023-04-17T20:25:46.898Z,7.7
2023-04-17T20:40:47.307Z,7.6
2023-04-17T20:55:48.124Z,7.6
2023-04-17T21:10:47.653Z,7.9
2023-04-17T21:25:49.095Z,7.8
2023-04-17T21:40:51.987Z,7.9
2023-04-17T21:55:50.841Z,8.1
2023-04-17T22:00:47.906Z,8.1
2023-04-17T22:15:34.774Z,8
2023-04-17T22:30:35.115Z,8.2
2023-04-17T22:45:36.700Z,8.1
2023-04-17T23:00:36.591Z,8.3
2023-04-17T23:15:38.248Z,8.3
2023-04-17T23:30:38.813Z,8.3
2023-04-17T23:45:44.621Z,8.3
